sensor_id;sensor_type;location;lat;lon;timestamp;P1;durP1;ratioP1;P2;durP2;ratioP2
44228;SDS011;29904;51.058;5.378;2022-12-18T00:01:36;47.15;;;21.75;;
44228;SDS011;29904;51.058;5.378;2022-12-18T00:04:03;49.45;;;21.70;;
44228;SDS011;29904;51.058;5.378;2022-12-18T00:06:31;41.55;;;19.83;;
44228;SDS011;29904;51.058;5.378;2022-12-18T00:08:59;38.63;;;18.57;;
44228;SDS011;29904;51.058;5.378;2022-12-18T00:11:28;40.28;;;18.40;;
44228;SDS011;29904;51.058;5.378;2022-12-18T00:13:55;37.80;;;17.42;;
44228;SDS011;29904;51.058;5.378;2022-12-18T00:16:23;36.67;;;17.05;;
44228;SDS011;29904;51.058;5.378;2022-12-18T00:18:51;39.75;;;18.23;;
44228;SDS011;29904;51.058;5.378;2022-12-18T00:21:19;42.25;;;19.95;;
44228;SDS011;29904;51.058;5.378;2022-12-18T00:23:45;48.07;;;20.70;;
44228;SDS011;29904;51.058;5.378;2022-12-18T00:26:14;42.58;;;20.05;;
44228;SDS011;29904;51.058;5.378;2022-12-18T00:28:42;47.25;;;21.33;;
44228;SDS011;29904;51.058;5.378;2022-12-18T00:31:13;46.28;;;20.20;;
44228;SDS011;29904;51.058;5.378;2022-12-18T00:33:44;41.65;;;20.27;;
44228;SDS011;29904;51.058;5.378;2022-12-18T00:36:11;37.88;;;18.67;;
44228;SDS011;29904;51.058;5.378;2022-12-18T00:38:44;40.20;;;19.65;;
44228;SDS011;29904;51.058;5.378;2022-12-18T00:41:11;41.28;;;19.05;;
44228;SDS011;29904;51.058;5.378;2022-12-18T00:43:40;35.90;;;17.92;;
44228;SDS011;29904;51.058;5.378;2022-12-18T00:46:06;33.77;;;16.90;;
44228;SDS011;29904;51.058;5.378;2022-12-18T00:48:34;37.03;;;17.23;;
44228;SDS011;29904;51.058;5.378;2022-12-18T00:50:59;31.17;;;16.47;;
44228;SDS011;29904;51.058;5.378;2022-12-18T00:53:25;34.22;;;17.00;;
44228;SDS011;29904;51.058;5.378;2022-12-18T00:55:52;33.33;;;16.27;;
44228;SDS011;29904;51.058;5.378;2022-12-18T00:58:18;37.22;;;17.73;;
44228;SDS011;29904;51.058;5.378;2022-12-18T01:00:44;31.50;;;16.05;;
44228;SDS011;29904;51.058;5.378;2022-12-18T01:03:12;33.30;;;16.20;;
44228;SDS011;29904;51.058;5.378;2022-12-18T01:05:39;29.85;;;14.95;;
44228;SDS011;29904;51.058;5.378;2022-12-18T01:08:07;30.90;;;15.93;;
44228;SDS011;29904;51.058;5.378;2022-12-18T01:10:32;32.00;;;15.50;;
44228;SDS011;29904;51.058;5.378;2022-12-18T01:12:58;31.58;;;16.20;;
44228;SDS011;29904;51.058;5.378;2022-12-18T01:15:24;32.65;;;15.73;;
44228;SDS011;29904;51.058;5.378;2022-12-18T01:17:51;32.40;;;15.95;;
44228;SDS011;29904;51.058;5.378;2022-12-18T01:20:18;30.07;;;15.10;;
44228;SDS011;29904;51.058;5.378;2022-12-18T01:22:43;33.78;;;16.75;;
44228;SDS011;29904;51.058;5.378;2022-12-18T01:25:11;38.80;;;18.60;;
44228;SDS011;29904;51.058;5.378;2022-12-18T01:27:37;37.03;;;18.98;;
44228;SDS011;29904;51.058;5.378;2022-12-18T01:30:03;35.38;;;17.73;;
44228;SDS011;29904;51.058;5.378;2022-12-18T01:32:29;30.98;;;16.33;;
44228;SDS011;29904;51.058;5.378;2022-12-18T01:34:56;32.05;;;15.55;;
44228;SDS011;29904;51.058;5.378;2022-12-18T01:37:22;30.40;;;15.82;;
44228;SDS011;29904;51.058;5.378;2022-12-18T01:39:52;39.13;;;18.55;;
44228;SDS011;29904;51.058;5.378;2022-12-18T01:42:19;35.60;;;18.08;;
44228;SDS011;29904;51.058;5.378;2022-12-18T01:45:30;35.17;;;16.50;;
44228;SDS011;29904;51.058;5.378;2022-12-18T01:50:15;35.23;;;17.67;;
44228;SDS011;29904;51.058;5.378;2022-12-18T01:52:49;37.65;;;18.23;;
44228;SDS011;29904;51.058;5.378;2022-12-18T01:55:37;34.50;;;17.38;;
44228;SDS011;29904;51.058;5.378;2022-12-18T01:58:07;33.08;;;17.00;;
44228;SDS011;29904;51.058;5.378;2022-12-18T02:00:33;32.83;;;16.17;;
44228;SDS011;29904;51.058;5.378;2022-12-18T02:03:00;33.80;;;17.77;;
44228;SDS011;29904;51.058;5.378;2022-12-18T02:05:34;36.27;;;19.00;;
44228;SDS011;29904;51.058;5.378;2022-12-18T02:10:32;36.95;;;17.92;;
44228;SDS011;29904;51.058;5.378;2022-12-18T02:16:29;34.05;;;17.42;;
44228;SDS011;29904;51.058;5.378;2022-12-18T02:19:08;34.53;;;19.27;;
44228;SDS011;29904;51.058;5.378;2022-12-18T02:21:58;37.43;;;19.23;;
44228;SDS011;29904;51.058;5.378;2022-12-18T02:27:29;35.28;;;18.77;;
44228;SDS011;29904;51.058;5.378;2022-12-18T02:29:57;34.87;;;18.47;;
44228;SDS011;29904;51.058;5.378;2022-12-18T02:32:37;36.07;;;18.03;;
44228;SDS011;29904;51.058;5.378;2022-12-18T02:35:08;34.25;;;17.98;;
44228;SDS011;29904;51.058;5.378;2022-12-18T02:37:38;34.88;;;17.65;;
44228;SDS011;29904;51.058;5.378;2022-12-18T02:40:07;35.08;;;17.60;;
44228;SDS011;29904;51.058;5.378;2022-12-18T02:42:36;32.28;;;17.00;;
44228;SDS011;29904;51.058;5.378;2022-12-18T02:45:01;33.97;;;17.60;;
44228;SDS011;29904;51.058;5.378;2022-12-18T02:47:28;33.72;;;17.75;;
44228;SDS011;29904;51.058;5.378;2022-12-18T02:55:54;33.90;;;18.57;;
44228;SDS011;29904;51.058;5.378;2022-12-18T03:01:01;32.70;;;17.55;;
44228;SDS011;29904;51.058;5.378;2022-12-18T03:03:39;32.55;;;16.85;;
44228;SDS011;29904;51.058;5.378;2022-12-18T03:06:26;35.55;;;17.70;;
44228;SDS011;29904;51.058;5.378;2022-12-18T03:08:58;31.13;;;16.25;;
44228;SDS011;29904;51.058;5.378;2022-12-18T03:11:38;32.97;;;17.20;;
44228;SDS011;29904;51.058;5.378;2022-12-18T03:14:25;33.58;;;16.90;;
44228;SDS011;29904;51.058;5.378;2022-12-18T03:16:57;30.77;;;16.00;;
44228;SDS011;29904;51.058;5.378;2022-12-18T03:19:26;31.92;;;16.70;;
44228;SDS011;29904;51.058;5.378;2022-12-18T03:21:55;31.10;;;16.60;;
44228;SDS011;29904;51.058;5.378;2022-12-18T03:24:24;32.17;;;16.00;;
44228;SDS011;29904;51.058;5.378;2022-12-18T03:26:54;31.08;;;16.80;;
44228;SDS011;29904;51.058;5.378;2022-12-18T03:29:27;32.50;;;16.50;;
44228;SDS011;29904;51.058;5.378;2022-12-18T03:31:55;31.83;;;16.88;;
44228;SDS011;29904;51.058;5.378;2022-12-18T03:34:29;30.33;;;15.95;;
44228;SDS011;29904;51.058;5.378;2022-12-18T03:36:57;32.42;;;16.48;;
44228;SDS011;29904;51.058;5.378;2022-12-18T03:39:23;31.83;;;15.82;;
44228;SDS011;29904;51.058;5.378;2022-12-18T03:47:54;31.83;;;15.35;;
44228;SDS011;29904;51.058;5.378;2022-12-18T03:55:43;30.75;;;15.70;;
44228;SDS011;29904;51.058;5.378;2022-12-18T03:58:11;31.13;;;15.02;;
44228;SDS011;29904;51.058;5.378;2022-12-18T04:00:40;28.70;;;15.00;;
44228;SDS011;29904;51.058;5.378;2022-12-18T04:03:06;29.55;;;14.95;;
44228;SDS011;29904;51.058;5.378;2022-12-18T04:05:34;29.23;;;14.60;;
44228;SDS011;29904;51.058;5.378;2022-12-18T04:08:02;26.07;;;13.90;;
44228;SDS011;29904;51.058;5.378;2022-12-18T04:10:28;27.70;;;14.00;;
44228;SDS011;29904;51.058;5.378;2022-12-18T04:12:58;27.20;;;14.23;;
44228;SDS011;29904;51.058;5.378;2022-12-18T04:15:24;26.45;;;14.65;;
44228;SDS011;29904;51.058;5.378;2022-12-18T04:17:49;24.73;;;13.70;;
44228;SDS011;29904;51.058;5.378;2022-12-18T04:20:15;22.77;;;13.20;;
44228;SDS011;29904;51.058;5.378;2022-12-18T04:22:41;25.70;;;13.48;;
44228;SDS011;29904;51.058;5.378;2022-12-18T04:25:08;24.88;;;13.00;;
44228;SDS011;29904;51.058;5.378;2022-12-18T04:27:34;25.65;;;13.65;;
44228;SDS011;29904;51.058;5.378;2022-12-18T04:29:59;26.17;;;13.65;;
44228;SDS011;29904;51.058;5.378;2022-12-18T04:32:25;24.80;;;13.02;;
44228;SDS011;29904;51.058;5.378;2022-12-18T04:34:53;27.60;;;13.27;;
44228;SDS011;29904;51.058;5.378;2022-12-18T04:37:19;23.55;;;12.15;;
44228;SDS011;29904;51.058;5.378;2022-12-18T04:39:44;24.15;;;12.73;;
44228;SDS011;29904;51.058;5.378;2022-12-18T04:42:12;26.43;;;13.17;;
44228;SDS011;29904;51.058;5.378;2022-12-18T04:44:38;25.75;;;12.90;;
44228;SDS011;29904;51.058;5.378;2022-12-18T04:47:03;25.00;;;12.40;;
44228;SDS011;29904;51.058;5.378;2022-12-18T04:49:32;24.40;;;11.95;;
44228;SDS011;29904;51.058;5.378;2022-12-18T04:51:58;23.42;;;11.85;;
44228;SDS011;29904;51.058;5.378;2022-12-18T04:54:23;22.33;;;11.90;;
44228;SDS011;29904;51.058;5.378;2022-12-18T04:56:50;21.55;;;11.43;;
44228;SDS011;29904;51.058;5.378;2022-12-18T04:59:16;22.83;;;11.07;;
44228;SDS011;29904;51.058;5.378;2022-12-18T05:01:41;21.63;;;11.15;;
44228;SDS011;29904;51.058;5.378;2022-12-18T05:04:07;19.65;;;11.07;;
44228;SDS011;29904;51.058;5.378;2022-12-18T05:06:33;22.13;;;10.87;;
44228;SDS011;29904;51.058;5.378;2022-12-18T05:08:58;19.35;;;10.52;;
44228;SDS011;29904;51.058;5.378;2022-12-18T05:11:24;21.17;;;10.80;;
44228;SDS011;29904;51.058;5.378;2022-12-18T05:13:50;21.83;;;10.85;;
44228;SDS011;29904;51.058;5.378;2022-12-18T05:16:15;20.10;;;11.00;;
44228;SDS011;29904;51.058;5.378;2022-12-18T05:18:45;20.63;;;10.50;;
44228;SDS011;29904;51.058;5.378;2022-12-18T05:21:10;20.25;;;10.27;;
44228;SDS011;29904;51.058;5.378;2022-12-18T05:23:36;19.63;;;9.80;;
44228;SDS011;29904;51.058;5.378;2022-12-18T05:26:03;18.55;;;9.80;;
44228;SDS011;29904;51.058;5.378;2022-12-18T05:28:30;16.60;;;9.30;;
44228;SDS011;29904;51.058;5.378;2022-12-18T05:30:58;17.30;;;9.53;;
44228;SDS011;29904;51.058;5.378;2022-12-18T05:33:28;19.80;;;9.88;;
44228;SDS011;29904;51.058;5.378;2022-12-18T05:35:58;20.55;;;9.93;;
44228;SDS011;29904;51.058;5.378;2022-12-18T05:38:25;17.77;;;9.45;;
44228;SDS011;29904;51.058;5.378;2022-12-18T05:40:52;16.58;;;8.98;;
44228;SDS011;29904;51.058;5.378;2022-12-18T05:43:18;17.20;;;9.75;;
44228;SDS011;29904;51.058;5.378;2022-12-18T05:45:46;15.40;;;8.73;;
44228;SDS011;29904;51.058;5.378;2022-12-18T05:48:13;15.32;;;8.93;;
44228;SDS011;29904;51.058;5.378;2022-12-18T05:50:39;16.88;;;9.45;;
44228;SDS011;29904;51.058;5.378;2022-12-18T05:53:07;16.35;;;9.02;;
44228;SDS011;29904;51.058;5.378;2022-12-18T05:55:33;15.88;;;9.02;;
44228;SDS011;29904;51.058;5.378;2022-12-18T05:58:02;15.40;;;8.70;;
44228;SDS011;29904;51.058;5.378;2022-12-18T06:00:28;17.95;;;9.50;;
44228;SDS011;29904;51.058;5.378;2022-12-18T06:02:54;20.50;;;10.60;;
44228;SDS011;29904;51.058;5.378;2022-12-18T06:05:22;17.95;;;9.43;;
44228;SDS011;29904;51.058;5.378;2022-12-18T06:07:48;18.40;;;9.87;;
44228;SDS011;29904;51.058;5.378;2022-12-18T06:10:13;17.40;;;9.65;;
44228;SDS011;29904;51.058;5.378;2022-12-18T06:12:39;16.67;;;9.57;;
44228;SDS011;29904;51.058;5.378;2022-12-18T06:15:05;19.07;;;10.30;;
44228;SDS011;29904;51.058;5.378;2022-12-18T06:17:31;18.02;;;9.50;;
44228;SDS011;29904;51.058;5.378;2022-12-18T06:19:57;16.98;;;9.35;;
44228;SDS011;29904;51.058;5.378;2022-12-18T06:22:23;16.42;;;9.00;;
44228;SDS011;29904;51.058;5.378;2022-12-18T06:24:50;18.08;;;9.30;;
44228;SDS011;29904;51.058;5.378;2022-12-18T06:27:18;15.50;;;8.88;;
44228;SDS011;29904;51.058;5.378;2022-12-18T06:29:43;15.68;;;8.70;;
44228;SDS011;29904;51.058;5.378;2022-12-18T06:32:09;15.40;;;8.85;;
44228;SDS011;29904;51.058;5.378;2022-12-18T06:34:37;16.30;;;8.77;;
44228;SDS011;29904;51.058;5.378;2022-12-18T06:37:03;18.17;;;9.27;;
44228;SDS011;29904;51.058;5.378;2022-12-18T06:39:29;16.05;;;8.05;;
44228;SDS011;29904;51.058;5.378;2022-12-18T06:41:56;14.85;;;8.68;;
44228;SDS011;29904;51.058;5.378;2022-12-18T06:44:22;14.70;;;8.98;;
44228;SDS011;29904;51.058;5.378;2022-12-18T06:46:48;17.30;;;9.48;;
44228;SDS011;29904;51.058;5.378;2022-12-18T06:49:14;20.60;;;10.00;;
44228;SDS011;29904;51.058;5.378;2022-12-18T06:51:41;18.27;;;9.13;;
44228;SDS011;29904;51.058;5.378;2022-12-18T06:54:07;18.48;;;9.90;;
44228;SDS011;29904;51.058;5.378;2022-12-18T06:56:33;20.25;;;10.02;;
44228;SDS011;29904;51.058;5.378;2022-12-18T06:58:59;19.02;;;10.02;;
44228;SDS011;29904;51.058;5.378;2022-12-18T07:01:25;20.80;;;10.30;;
44228;SDS011;29904;51.058;5.378;2022-12-18T07:03:51;19.20;;;10.60;;
44228;SDS011;29904;51.058;5.378;2022-12-18T07:06:19;19.48;;;10.43;;
44228;SDS011;29904;51.058;5.378;2022-12-18T07:08:47;20.45;;;9.63;;
44228;SDS011;29904;51.058;5.378;2022-12-18T07:11:14;16.65;;;9.80;;
44228;SDS011;29904;51.058;5.378;2022-12-18T07:13:40;17.02;;;9.63;;
44228;SDS011;29904;51.058;5.378;2022-12-18T07:16:09;17.80;;;9.67;;
44228;SDS011;29904;51.058;5.378;2022-12-18T07:18:36;17.75;;;9.98;;
44228;SDS011;29904;51.058;5.378;2022-12-18T07:21:04;18.93;;;9.97;;
44228;SDS011;29904;51.058;5.378;2022-12-18T07:23:31;19.17;;;10.57;;
44228;SDS011;29904;51.058;5.378;2022-12-18T07:26:05;23.30;;;12.05;;
44228;SDS011;29904;51.058;5.378;2022-12-18T07:28:34;26.80;;;12.85;;
44228;SDS011;29904;51.058;5.378;2022-12-18T07:31:07;32.13;;;16.30;;
44228;SDS011;29904;51.058;5.378;2022-12-18T07:33:38;23.45;;;13.15;;
44228;SDS011;29904;51.058;5.378;2022-12-18T07:36:05;18.58;;;10.88;;
44228;SDS011;29904;51.058;5.378;2022-12-18T07:38:33;18.80;;;10.07;;
44228;SDS011;29904;51.058;5.378;2022-12-18T07:41:01;18.38;;;10.10;;
44228;SDS011;29904;51.058;5.378;2022-12-18T07:43:27;20.35;;;10.63;;
44228;SDS011;29904;51.058;5.378;2022-12-18T07:45:53;17.38;;;9.68;;
44228;SDS011;29904;51.058;5.378;2022-12-18T07:48:21;19.60;;;10.27;;
44228;SDS011;29904;51.058;5.378;2022-12-18T07:50:46;19.63;;;10.18;;
44228;SDS011;29904;51.058;5.378;2022-12-18T07:53:12;21.30;;;10.30;;
44228;SDS011;29904;51.058;5.378;2022-12-18T07:55:39;19.98;;;10.90;;
44228;SDS011;29904;51.058;5.378;2022-12-18T07:58:06;18.40;;;10.23;;
44228;SDS011;29904;51.058;5.378;2022-12-18T08:00:33;19.43;;;10.90;;
44228;SDS011;29904;51.058;5.378;2022-12-18T08:02:59;19.13;;;10.60;;
44228;SDS011;29904;51.058;5.378;2022-12-18T08:05:25;18.38;;;10.68;;
44228;SDS011;29904;51.058;5.378;2022-12-18T08:07:51;17.65;;;10.45;;
44228;SDS011;29904;51.058;5.378;2022-12-18T08:10:16;17.97;;;9.90;;
44228;SDS011;29904;51.058;5.378;2022-12-18T08:12:42;19.13;;;11.13;;
44228;SDS011;29904;51.058;5.378;2022-12-18T08:15:08;21.87;;;11.63;;
44228;SDS011;29904;51.058;5.378;2022-12-18T08:17:34;24.67;;;13.52;;
44228;SDS011;29904;51.058;5.378;2022-12-18T08:20:00;22.73;;;11.93;;
44228;SDS011;29904;51.058;5.378;2022-12-18T08:22:25;22.27;;;12.05;;
44228;SDS011;29904;51.058;5.378;2022-12-18T08:24:55;24.85;;;12.55;;
44228;SDS011;29904;51.058;5.378;2022-12-18T08:27:20;25.23;;;12.97;;
44228;SDS011;29904;51.058;5.378;2022-12-18T08:29:46;22.93;;;12.33;;
44228;SDS011;29904;51.058;5.378;2022-12-18T08:32:12;21.85;;;11.75;;
44228;SDS011;29904;51.058;5.378;2022-12-18T08:34:37;21.27;;;12.23;;
44228;SDS011;29904;51.058;5.378;2022-12-18T08:37:03;22.13;;;11.93;;
44228;SDS011;29904;51.058;5.378;2022-12-18T08:39:29;21.48;;;11.05;;
44228;SDS011;29904;51.058;5.378;2022-12-18T08:41:54;20.90;;;11.20;;
44228;SDS011;29904;51.058;5.378;2022-12-18T08:44:39;20.67;;;11.07;;
44228;SDS011;29904;51.058;5.378;2022-12-18T08:47:07;20.05;;;10.90;;
44228;SDS011;29904;51.058;5.378;2022-12-18T08:49:33;18.85;;;10.93;;
44228;SDS011;29904;51.058;5.378;2022-12-18T08:51:59;18.20;;;10.55;;
44228;SDS011;29904;51.058;5.378;2022-12-18T08:54:26;21.60;;;11.68;;
44228;SDS011;29904;51.058;5.378;2022-12-18T08:56:51;19.27;;;10.68;;
44228;SDS011;29904;51.058;5.378;2022-12-18T08:59:18;19.93;;;10.40;;
44228;SDS011;29904;51.058;5.378;2022-12-18T09:01:44;20.08;;;11.10;;
44228;SDS011;29904;51.058;5.378;2022-12-18T09:04:11;18.65;;;10.60;;
44228;SDS011;29904;51.058;5.378;2022-12-18T09:06:37;18.80;;;10.73;;
44228;SDS011;29904;51.058;5.378;2022-12-18T09:09:05;17.48;;;10.07;;
44228;SDS011;29904;51.058;5.378;2022-12-18T09:11:31;18.25;;;10.60;;
44228;SDS011;29904;51.058;5.378;2022-12-18T09:13:58;19.05;;;10.77;;
44228;SDS011;29904;51.058;5.378;2022-12-18T09:16:26;19.38;;;11.23;;
44228;SDS011;29904;51.058;5.378;2022-12-18T09:18:54;20.10;;;10.73;;
44228;SDS011;29904;51.058;5.378;2022-12-18T09:21:24;20.38;;;11.25;;
44228;SDS011;29904;51.058;5.378;2022-12-18T09:23:53;19.25;;;11.02;;
44228;SDS011;29904;51.058;5.378;2022-12-18T09:26:21;19.15;;;10.43;;
44228;SDS011;29904;51.058;5.378;2022-12-18T09:28:48;19.67;;;10.55;;
44228;SDS011;29904;51.058;5.378;2022-12-18T09:31:14;19.48;;;10.90;;
44228;SDS011;29904;51.058;5.378;2022-12-18T09:33:40;22.15;;;11.18;;
44228;SDS011;29904;51.058;5.378;2022-12-18T09:36:07;19.13;;;10.67;;
44228;SDS011;29904;51.058;5.378;2022-12-18T09:38:35;18.35;;;10.30;;
44228;SDS011;29904;51.058;5.378;2022-12-18T09:41:05;20.30;;;11.55;;
44228;SDS011;29904;51.058;5.378;2022-12-18T09:43:47;19.02;;;10.38;;
44228;SDS011;29904;51.058;5.378;2022-12-18T09:46:25;19.85;;;10.80;;
44228;SDS011;29904;51.058;5.378;2022-12-18T09:48:54;20.27;;;11.35;;
44228;SDS011;29904;51.058;5.378;2022-12-18T09:51:33;23.17;;;11.48;;
44228;SDS011;29904;51.058;5.378;2022-12-18T09:54:05;20.40;;;10.75;;
44228;SDS011;29904;51.058;5.378;2022-12-18T09:56:38;19.88;;;11.27;;
44228;SDS011;29904;51.058;5.378;2022-12-18T09:59:09;19.33;;;11.65;;
44228;SDS011;29904;51.058;5.378;2022-12-18T10:01:49;20.48;;;11.60;;
44228;SDS011;29904;51.058;5.378;2022-12-18T10:04:14;19.73;;;11.93;;
44228;SDS011;29904;51.058;5.378;2022-12-18T10:15:35;20.77;;;11.13;;
44228;SDS011;29904;51.058;5.378;2022-12-18T10:20:47;19.30;;;11.40;;
44228;SDS011;29904;51.058;5.378;2022-12-18T10:26:19;29.08;;;14.48;;
44228;SDS011;29904;51.058;5.378;2022-12-18T10:28:45;23.35;;;12.80;;
44228;SDS011;29904;51.058;5.378;2022-12-18T10:31:17;19.17;;;11.80;;
44228;SDS011;29904;51.058;5.378;2022-12-18T10:33:45;21.77;;;11.60;;
44228;SDS011;29904;51.058;5.378;2022-12-18T10:36:11;21.67;;;11.88;;
44228;SDS011;29904;51.058;5.378;2022-12-18T10:38:37;19.13;;;11.35;;
44228;SDS011;29904;51.058;5.378;2022-12-18T10:41:04;23.10;;;12.10;;
44228;SDS011;29904;51.058;5.378;2022-12-18T10:43:43;23.92;;;12.75;;
44228;SDS011;29904;51.058;5.378;2022-12-18T10:48:36;24.70;;;13.60;;
44228;SDS011;29904;51.058;5.378;2022-12-18T10:51:22;25.00;;;14.20;;
44228;SDS011;29904;51.058;5.378;2022-12-18T10:54:03;25.48;;;13.85;;
44228;SDS011;29904;51.058;5.378;2022-12-18T10:56:43;24.00;;;13.00;;
44228;SDS011;29904;51.058;5.378;2022-12-18T10:59:11;26.08;;;13.88;;
44228;SDS011;29904;51.058;5.378;2022-12-18T11:01:49;23.90;;;13.23;;
44228;SDS011;29904;51.058;5.378;2022-12-18T11:04:20;22.08;;;12.70;;
44228;SDS011;29904;51.058;5.378;2022-12-18T11:06:52;24.30;;;12.90;;
44228;SDS011;29904;51.058;5.378;2022-12-18T11:09:23;22.57;;;12.90;;
44228;SDS011;29904;51.058;5.378;2022-12-18T11:12:19;24.15;;;13.23;;
44228;SDS011;29904;51.058;5.378;2022-12-18T11:14:48;23.83;;;13.13;;
44228;SDS011;29904;51.058;5.378;2022-12-18T11:17:20;22.25;;;12.25;;
44228;SDS011;29904;51.058;5.378;2022-12-18T11:19:53;21.70;;;12.82;;
44228;SDS011;29904;51.058;5.378;2022-12-18T11:22:29;22.20;;;12.68;;
44228;SDS011;29904;51.058;5.378;2022-12-18T11:27:41;21.83;;;13.60;;
44228;SDS011;29904;51.058;5.378;2022-12-18T11:30:33;27.70;;;16.58;;
44228;SDS011;29904;51.058;5.378;2022-12-18T11:33:02;25.08;;;15.50;;
44228;SDS011;29904;51.058;5.378;2022-12-18T11:38:21;22.33;;;13.13;;
44228;SDS011;29904;51.058;5.378;2022-12-18T11:43:29;23.27;;;13.57;;
44228;SDS011;29904;51.058;5.378;2022-12-18T11:46:02;25.33;;;14.10;;
44228;SDS011;29904;51.058;5.378;2022-12-18T11:48:37;22.27;;;13.50;;
44228;SDS011;29904;51.058;5.378;2022-12-18T11:51:14;23.65;;;13.25;;
44228;SDS011;29904;51.058;5.378;2022-12-18T11:53:48;22.52;;;12.85;;
44228;SDS011;29904;51.058;5.378;2022-12-18T12:02:03;25.58;;;13.77;;
44228;SDS011;29904;51.058;5.378;2022-12-18T12:07:41;23.80;;;13.32;;
44228;SDS011;29904;51.058;5.378;2022-12-18T12:21:29;23.80;;;13.23;;
44228;SDS011;29904;51.058;5.378;2022-12-18T12:24:34;23.48;;;13.70;;
44228;SDS011;29904;51.058;5.378;2022-12-18T12:30:30;22.97;;;14.03;;
44228;SDS011;29904;51.058;5.378;2022-12-18T12:33:21;25.37;;;14.47;;
44228;SDS011;29904;51.058;5.378;2022-12-18T12:36:06;26.55;;;14.60;;
44228;SDS011;29904;51.058;5.378;2022-12-18T12:38:54;26.38;;;15.00;;
44228;SDS011;29904;51.058;5.378;2022-12-18T12:41:25;24.50;;;14.48;;
44228;SDS011;29904;51.058;5.378;2022-12-18T12:44:19;24.50;;;14.18;;
44228;SDS011;29904;51.058;5.378;2022-12-18T12:46:50;25.10;;;14.32;;
44228;SDS011;29904;51.058;5.378;2022-12-18T12:49:20;23.98;;;14.15;;
44228;SDS011;29904;51.058;5.378;2022-12-18T12:51:55;23.55;;;13.85;;
44228;SDS011;29904;51.058;5.378;2022-12-18T12:54:29;22.80;;;13.65;;
44228;SDS011;29904;51.058;5.378;2022-12-18T12:57:18;22.90;;;12.60;;
44228;SDS011;29904;51.058;5.378;2022-12-18T12:59:51;24.07;;;13.67;;
44228;SDS011;29904;51.058;5.378;2022-12-18T13:02:33;22.48;;;14.05;;
44228;SDS011;29904;51.058;5.378;2022-12-18T13:08:24;23.15;;;13.48;;
44228;SDS011;29904;51.058;5.378;2022-12-18T13:10:53;23.70;;;14.00;;
44228;SDS011;29904;51.058;5.378;2022-12-18T13:13:51;23.85;;;13.75;;
44228;SDS011;29904;51.058;5.378;2022-12-18T13:16:22;23.08;;;13.68;;
44228;SDS011;29904;51.058;5.378;2022-12-18T13:18:50;23.00;;;14.38;;
44228;SDS011;29904;51.058;5.378;2022-12-18T13:23:52;24.45;;;14.18;;
44228;SDS011;29904;51.058;5.378;2022-12-18T13:36:47;28.15;;;16.20;;
44228;SDS011;29904;51.058;5.378;2022-12-18T13:41:42;26.57;;;15.07;;
44228;SDS011;29904;51.058;5.378;2022-12-18T13:44:12;25.45;;;13.63;;
44228;SDS011;29904;51.058;5.378;2022-12-18T13:46:49;25.17;;;15.10;;
44228;SDS011;29904;51.058;5.378;2022-12-18T13:52:14;24.73;;;14.57;;
44228;SDS011;29904;51.058;5.378;2022-12-18T13:54:43;24.73;;;14.07;;
44228;SDS011;29904;51.058;5.378;2022-12-18T13:57:27;24.60;;;14.02;;
44228;SDS011;29904;51.058;5.378;2022-12-18T14:00:16;22.83;;;14.30;;
44228;SDS011;29904;51.058;5.378;2022-12-18T14:02:49;21.42;;;13.48;;
44228;SDS011;29904;51.058;5.378;2022-12-18T14:07:50;22.80;;;14.18;;
44228;SDS011;29904;51.058;5.378;2022-12-18T14:10:17;23.75;;;14.10;;
44228;SDS011;29904;51.058;5.378;2022-12-18T14:12:47;22.52;;;13.57;;
44228;SDS011;29904;51.058;5.378;2022-12-18T14:20:24;22.52;;;14.05;;
44228;SDS011;29904;51.058;5.378;2022-12-18T14:22:50;24.17;;;14.20;;
44228;SDS011;29904;51.058;5.378;2022-12-18T14:25:26;24.02;;;14.75;;
44228;SDS011;29904;51.058;5.378;2022-12-18T14:28:02;24.17;;;14.13;;
44228;SDS011;29904;51.058;5.378;2022-12-18T14:30:43;26.67;;;15.60;;
44228;SDS011;29904;51.058;5.378;2022-12-18T14:33:14;27.50;;;16.60;;
44228;SDS011;29904;51.058;5.378;2022-12-18T14:40:53;28.20;;;16.88;;
44228;SDS011;29904;51.058;5.378;2022-12-18T14:43:21;32.58;;;20.92;;
44228;SDS011;29904;51.058;5.378;2022-12-18T14:45:48;29.92;;;17.92;;
44228;SDS011;29904;51.058;5.378;2022-12-18T14:48:32;26.23;;;16.23;;
44228;SDS011;29904;51.058;5.378;2022-12-18T14:51:02;28.63;;;17.42;;
44228;SDS011;29904;51.058;5.378;2022-12-18T14:53:32;26.02;;;16.05;;
44228;SDS011;29904;51.058;5.378;2022-12-18T14:56:00;25.60;;;15.43;;
44228;SDS011;29904;51.058;5.378;2022-12-18T14:58:27;24.52;;;15.48;;
44228;SDS011;29904;51.058;5.378;2022-12-18T15:00:53;22.92;;;14.55;;
44228;SDS011;29904;51.058;5.378;2022-12-18T15:03:20;28.27;;;17.17;;
44228;SDS011;29904;51.058;5.378;2022-12-18T15:05:46;24.02;;;14.88;;
44228;SDS011;29904;51.058;5.378;2022-12-18T15:08:34;25.13;;;15.38;;
44228;SDS011;29904;51.058;5.378;2022-12-18T15:11:01;23.25;;;14.32;;
44228;SDS011;29904;51.058;5.378;2022-12-18T15:13:27;27.42;;;16.63;;
44228;SDS011;29904;51.058;5.378;2022-12-18T15:15:54;25.10;;;14.68;;
44228;SDS011;29904;51.058;5.378;2022-12-18T15:18:30;27.95;;;17.00;;
44228;SDS011;29904;51.058;5.378;2022-12-18T15:20:59;30.65;;;17.83;;
44228;SDS011;29904;51.058;5.378;2022-12-18T15:23:37;35.38;;;20.10;;
44228;SDS011;29904;51.058;5.378;2022-12-18T15:26:10;30.38;;;18.42;;
44228;SDS011;29904;51.058;5.378;2022-12-18T15:33:59;32.47;;;17.45;;
44228;SDS011;29904;51.058;5.378;2022-12-18T15:36:33;29.17;;;18.23;;
44228;SDS011;29904;51.058;5.378;2022-12-18T15:39:01;25.15;;;15.70;;
44228;SDS011;29904;51.058;5.378;2022-12-18T15:41:30;28.92;;;17.80;;
44228;SDS011;29904;51.058;5.378;2022-12-18T15:43:58;28.73;;;17.67;;
44228;SDS011;29904;51.058;5.378;2022-12-18T15:46:26;29.55;;;18.08;;
44228;SDS011;29904;51.058;5.378;2022-12-18T15:48:56;29.80;;;18.58;;
44228;SDS011;29904;51.058;5.378;2022-12-18T15:51:35;31.10;;;18.88;;
44228;SDS011;29904;51.058;5.378;2022-12-18T15:54:04;28.75;;;18.42;;
44228;SDS011;29904;51.058;5.378;2022-12-18T15:56:31;34.45;;;20.48;;
44228;SDS011;29904;51.058;5.378;2022-12-18T15:59:17;32.58;;;19.40;;
44228;SDS011;29904;51.058;5.378;2022-12-18T16:01:46;37.25;;;23.13;;
44228;SDS011;29904;51.058;5.378;2022-12-18T16:04:14;55.50;;;33.78;;
44228;SDS011;29904;51.058;5.378;2022-12-18T16:06:41;58.95;;;36.03;;
44228;SDS011;29904;51.058;5.378;2022-12-18T16:09:08;45.00;;;28.20;;
44228;SDS011;29904;51.058;5.378;2022-12-18T16:11:34;41.20;;;25.17;;
44228;SDS011;29904;51.058;5.378;2022-12-18T16:14:25;32.45;;;20.40;;
44228;SDS011;29904;51.058;5.378;2022-12-18T16:16:54;49.15;;;29.15;;
44228;SDS011;29904;51.058;5.378;2022-12-18T16:19:24;29.92;;;19.20;;
44228;SDS011;29904;51.058;5.378;2022-12-18T16:21:51;23.90;;;14.87;;
44228;SDS011;29904;51.058;5.378;2022-12-18T16:24:18;25.77;;;14.77;;
44228;SDS011;29904;51.058;5.378;2022-12-18T16:26:47;25.73;;;15.55;;
44228;SDS011;29904;51.058;5.378;2022-12-18T16:29:12;25.98;;;15.50;;
44228;SDS011;29904;51.058;5.378;2022-12-18T16:31:42;24.88;;;14.73;;
44228;SDS011;29904;51.058;5.378;2022-12-18T16:34:21;28.40;;;15.87;;
44228;SDS011;29904;51.058;5.378;2022-12-18T16:36:53;41.15;;;23.05;;
44228;SDS011;29904;51.058;5.378;2022-12-18T16:39:23;50.13;;;28.15;;